Terminal Aerodrome Forecast
Issued by NWS

Home | Current Version | Previous Version | Text Only | Print | Product List | Glossary On
Versions: 1 2 3 4 5 6 7 8 9 10 11 12 13 14 15 16 17 18 19 20 21 22 23 24 25 26 27 28 29 30
000
FTUS42 KCAE 220539
TAFOGB
TAF
KOGB 220539Z 2206/2306 VRB03KT 6SM BR OVC015
     FM220800 VRB03KT 2SM BR BKN007
     FM221000 VRB03KT 1/2SM FG VV002
     FM221500 36004KT 4SM BR BKN012
     FM221600 36007KT P6SM BKN035
     FM222300 03004KT P6SM SCT250=

USA.gov is the U.S. government's official web portal to all federal, state and local government web resources and services.